This is the latest recevied weather packets stored in our database for station/object K7EK. If no packets are shown the sender has not sent any weather packets the latest 10 day(s).
| Time | Temp. | Humidity | Pressure | Rain* | Wind** | Luminosity | Snow |
|---|---|---|---|---|---|---|---|
| 1777975250 | 15.56° C | 72% | 1008.8 hPa | 0 mm | - | - | - |
| 1777963549 | 18.33° C | 62% | 1008 hPa | 0 mm | - | - | - |
| 1777955459 | 19.44° C | 58% | 1008.2 hPa | 0 mm | - | - | - |
| 1777952750 | 20° C | 57% | 1008.3 hPa | 0 mm | - | - | - |
| 1777947353 | 21.11° C | 53% | 1007 hPa | 0 mm | - | - | - |
| 1777946452 | 21.11° C | 54% | 1006.8 hPa | 0 mm | - | - | - |
| 1777942868 | 22.22° C | 51% | 1006 hPa | 0 mm | - | - | - |
| 1777938348 | 23.33° C | 51% | 1006.7 hPa | 0 mm | - | - | - |
| 1777933851 | 25° C | 47% | 1008.2 hPa | 0 mm | - | - | - |
| 1777929343 | 25° C | 50% | 1008 hPa | 0 mm | - | - | - |
| 1777920344 | 24.44° C | 52% | 1009.6 hPa | 0 mm | - | - | - |
| 1777919442 | 23.89° C | 53% | 1009.5 hPa | 0 mm | - | - | - |
| 1777917648 | 23.33° C | 56% | 1009.5 hPa | 0 mm | - | - | - |
| 1777914950 | 22.78° C | 57% | 1009.8 hPa | 0 mm | - | - | - |
| 1777914052 | 22.22° C | 60% | 1009.9 hPa | 0 mm | - | - | - |
| 1777909589 | 21.11° C | 62% | 1010.5 hPa | 0 mm | - | - | - |
| 1777893343 | 11.67° C | 74% | 1012.4 hPa | 0 mm | - | - | - |
| 1777887053 | 12.22° C | 72% | 1011.4 hPa | 0 mm | - | - | - |
| 1777878056 | 10.56° C | 85% | 1011.7 hPa | 2.79 mm | - | - | - |
| 1777877149 | 10.56° C | 84% | 1011.9 hPa | 2.29 mm | - | - | - |
| 1777863652 | 10° C | 74% | 1013.6 hPa | 0 mm | - | - | - |
| 1777862750 | 10° C | 75% | 1013.8 hPa | 0 mm | - | - | - |
| 1777859157 | 11.67° C | 64% | 1013.8 hPa | 0 mm | - | - | - |
| 1777854651 | 15° C | 52% | 1012.9 hPa | 0 mm | - | - | - |
| 1777851950 | 17.22° C | 46% | 1013.2 hPa | 0 mm | - | - | - |
* Rain latest hour (hover to see other rain measurements)
** Current wind speed in m/s (hover to see current wind gust speed)